Ana Sayfa
METAR-TAF:

METAR-TAF

Havaalanları :

Missoula, Montana, Amerika Birleşik Devletleri

Enlem: 46-55-15N, Boylam: 114-05-33W, yükseklik: 975 m

Güncel hava durumu gözlemi

Rapor saat 13:44 UTC de 15 dakika önce yapıldı.
Sakin rüzgar
Sıcaklık -5°C
Nem 86%
Basınç 1024 hPa
Görüş mesafesi: 1.2 km
Pus

METAR: KMSO 281344Z 00000KT 3/4SM BR VV002 M05/M07 A3024 RMK AO2 I1000 T10501067

Saat: 06:59 (13:59 UTC)

Tahmin

Rapor saat 11:20 UTC de 2 saat ve 39 dakika önce yapıldı.
Ayın 28'si saat 12 UTC'den ayın 29'si saat 12 UTC'ye kadar geçerli Tahmin
Rüzgar kuzeydan kt
Görüş mesafesi: 10 km
Açık gökyüzü

TAF: KMSO 281120Z 2812/2912 00000KT P6SM SKC

4.000'den fazla havaalanı için hava durumu gözlemleri ve tahminleri (METAR ve TAF raporları).

Kullanılabilir istasyonlar harita üzerinde sarı ve kırmızı noktalarla gösterilir.

İstasyonun adını görmek için fareyi noktanın üzerinde gezdirin.

Sonrasında hava gözlem ve tahminlerini görmek için tıklayın.

Haritayı değiştirmek için: yaklaştırmak için siyah artı işaretli yeşil düğmeye ve uzaklaştırmak için de eksi işaretli düğmeye hızla tıklayın; bitişik haritalar için yeşil okları kullanın.


METAR-TAF: